createdAt,value
2022-12-14T00:01:14.859Z,0.11
2022-12-14T00:02:54.712Z,0.14
2022-12-14T00:04:34.403Z,0.14
2022-12-14T00:06:14.152Z,0.12
2022-12-14T00:07:53.896Z,0.12
2022-12-14T00:09:33.740Z,0.13
2022-12-14T00:11:13.493Z,0.12
2022-12-14T00:12:53.199Z,0.14
2022-12-14T00:14:33.062Z,0.13
2022-12-14T00:16:12.725Z,0.12
2022-12-14T00:17:52.480Z,0.14
2022-12-14T00:19:32.317Z,0.15
2022-12-14T00:21:12.027Z,0.14
2022-12-14T00:22:51.773Z,0.15
2022-12-14T00:24:31.582Z,0.13
2022-12-14T00:26:11.317Z,0.13
2022-12-14T00:27:51.082Z,0.14
2022-12-14T00:29:30.831Z,0.15
2022-12-14T00:31:10.619Z,0.13
2022-12-14T00:32:50.360Z,0.15
2022-12-14T00:34:30.133Z,0.13
2022-12-14T00:36:09.926Z,0.13
2022-12-14T00:37:49.705Z,0.13
2022-12-14T00:39:29.422Z,0.13
2022-12-14T00:41:09.216Z,0.15
2022-12-14T00:42:49.026Z,0.15
2022-12-14T00:44:28.724Z,0.15
2022-12-14T00:46:08.486Z,0.15
2022-12-14T00:47:48.244Z,0.13
2022-12-14T00:49:28.008Z,0.13
2022-12-14T00:51:07.783Z,0.14
2022-12-14T00:52:47.563Z,0.15
2022-12-14T00:54:27.305Z,0.14
2022-12-14T00:56:07.085Z,0.14
2022-12-14T00:57:46.816Z,0.14
2022-12-14T00:59:26.580Z,0.14
2022-12-14T01:01:06.425Z,0.16
2022-12-14T01:02:46.109Z,0.14
2022-12-14T01:04:25.886Z,0.16
2022-12-14T01:06:05.656Z,0.14
2022-12-14T01:07:45.421Z,0.14
2022-12-14T01:09:25.195Z,0.15
2022-12-14T01:11:04.951Z,0.15
2022-12-14T01:12:44.696Z,0.16
2022-12-14T01:14:24.469Z,0.15
2022-12-14T01:16:04.217Z,0.16
2022-12-14T01:17:43.980Z,0.16
2022-12-14T01:19:23.756Z,0.14
2022-12-14T01:21:03.518Z,0.16
2022-12-14T01:22:43.268Z,0.14
2022-12-14T01:24:23.050Z,0.16
2022-12-14T01:26:02.814Z,0.16
2022-12-14T01:27:42.569Z,0.16
2022-12-14T01:29:22.323Z,0.17
2022-12-14T01:31:02.099Z,0.18
2022-12-14T01:32:41.853Z,0.17
2022-12-14T01:34:21.624Z,0.19
2022-12-14T01:36:01.387Z,0.16
2022-12-14T01:37:41.151Z,0.16
2022-12-14T01:39:20.950Z,0.15
2022-12-14T01:41:00.672Z,0.15
2022-12-14T01:42:40.443Z,0.15
2022-12-14T01:44:20.207Z,0.16
2022-12-14T01:45:59.963Z,0.15
2022-12-14T01:47:39.740Z,0.15
2022-12-14T01:49:19.496Z,0.15
2022-12-14T01:50:59.269Z,0.16
2022-12-14T01:52:39.040Z,0.19
2022-12-14T01:54:18.805Z,0.17
2022-12-14T01:55:58.542Z,0.16
2022-12-14T01:57:38.326Z,0.16
2022-12-14T01:59:18.075Z,0.17
2022-12-14T02:00:57.862Z,0.16
2022-12-14T02:02:37.611Z,0.16
2022-12-14T02:04:17.363Z,0.18
2022-12-14T02:05:57.140Z,0.16
2022-12-14T02:07:36.985Z,0.18
2022-12-14T02:09:16.679Z,0.18
2022-12-14T02:10:56.429Z,0.17
2022-12-14T02:12:36.191Z,0.19
2022-12-14T02:14:15.960Z,0.18
2022-12-14T02:15:55.723Z,0.16
2022-12-14T02:17:35.493Z,0.18
2022-12-14T02:19:15.247Z,0.16
2022-12-14T02:20:55.008Z,0.16
2022-12-14T02:22:34.777Z,0.17
2022-12-14T02:24:14.537Z,0.19
2022-12-14T02:25:54.305Z,0.18
2022-12-14T02:27:34.069Z,0.16
2022-12-14T02:29:13.820Z,0.16
2022-12-14T02:30:53.591Z,0.16
2022-12-14T02:32:33.353Z,0.16
2022-12-14T02:34:13.122Z,0.17
2022-12-14T02:35:52.876Z,0.17
2022-12-14T02:37:32.636Z,0.18
2022-12-14T02:39:12.416Z,0.16
2022-12-14T02:40:52.192Z,0.17
2022-12-14T02:42:31.939Z,0.16
2022-12-14T02:44:11.701Z,0.16
2022-12-14T02:45:51.472Z,0.19
2022-12-14T02:47:31.222Z,0.17
2022-12-14T02:49:11.053Z,0.18
2022-12-14T02:50:50.756Z,0.18
2022-12-14T02:52:30.523Z,0.17
2022-12-14T02:54:10.294Z,0.17
2022-12-14T02:55:50.045Z,0.17
2022-12-14T02:57:29.823Z,0.19
2022-12-14T02:59:09.590Z,0.16
2022-12-14T03:00:49.357Z,0.19
2022-12-14T03:02:29.135Z,0.17
2022-12-14T03:04:08.885Z,0.17
2022-12-14T03:05:48.682Z,0.19
2022-12-14T03:07:28.400Z,0.17
2022-12-14T03:09:08.155Z,0.17
2022-12-14T03:10:47.927Z,0.17
2022-12-14T03:12:27.681Z,0.18
2022-12-14T03:14:07.453Z,0.19
2022-12-14T03:15:47.246Z,0.18
2022-12-14T03:17:27.008Z,0.17
2022-12-14T03:19:06.768Z,0.16
2022-12-14T03:20:46.496Z,0.18
2022-12-14T03:22:26.278Z,0.18
2022-12-14T03:24:06.086Z,0.16
2022-12-14T03:25:45.808Z,0.17
2022-12-14T03:27:25.564Z,0.17
2022-12-14T03:29:05.334Z,0.16
2022-12-14T03:30:45.118Z,0.16
2022-12-14T03:32:24.862Z,0.17
2022-12-14T03:34:04.725Z,0.17
2022-12-14T03:35:44.389Z,0.17
2022-12-14T03:37:24.150Z,0.19
2022-12-14T03:39:03.915Z,0.19
2022-12-14T03:40:43.667Z,0.2
2022-12-14T03:42:23.432Z,0.19
2022-12-14T03:44:03.198Z,0.18
2022-12-14T03:45:42.966Z,0.16
2022-12-14T03:47:22.731Z,0.17
2022-12-14T03:49:02.494Z,0.18
2022-12-14T03:50:42.255Z,0.19
2022-12-14T03:52:22.027Z,0.19
2022-12-14T03:54:01.798Z,0.18
2022-12-14T03:55:41.555Z,0.18
2022-12-14T03:57:21.317Z,0.18
2022-12-14T03:59:01.065Z,0.16
2022-12-14T04:00:40.851Z,0.17
2022-12-14T04:02:20.597Z,0.16
2022-12-14T04:04:00.431Z,0.15
2022-12-14T04:05:40.130Z,0.16
2022-12-14T04:07:19.892Z,0.15
2022-12-14T04:08:59.651Z,0.18
2022-12-14T04:10:39.480Z,0.18
2022-12-14T04:12:19.195Z,0.17
2022-12-14T04:13:58.949Z,0.18
2022-12-14T04:15:38.710Z,0.17
2022-12-14T04:17:18.489Z,0.16
2022-12-14T04:18:58.244Z,0.16
2022-12-14T04:20:38.010Z,0.18
2022-12-14T04:22:17.776Z,0.17
2022-12-14T04:23:57.646Z,0.18
2022-12-14T04:25:37.298Z,0.16
2022-12-14T04:27:17.062Z,0.17
2022-12-14T04:28:56.836Z,0.16
2022-12-14T04:30:36.601Z,0.16
2022-12-14T04:32:16.347Z,0.17
2022-12-14T04:33:56.119Z,0.18
2022-12-14T04:35:35.941Z,0.18
2022-12-14T04:37:15.649Z,0.16
2022-12-14T04:38:55.436Z,0.18
2022-12-14T04:40:35.162Z,0.18
2022-12-14T04:42:14.923Z,0.17
2022-12-14T04:43:54.761Z,0.19
2022-12-14T04:45:34.450Z,0.17
2022-12-14T04:47:14.233Z,0.16
2022-12-14T04:48:53.994Z,0.19
2022-12-14T04:50:33.808Z,0.16
2022-12-14T04:52:13.515Z,0.15
2022-12-14T04:53:53.270Z,0.17
2022-12-14T04:55:33.036Z,0.17
2022-12-14T04:57:12.808Z,0.18
2022-12-14T04:58:52.582Z,0.16
2022-12-14T05:00:32.329Z,0.17
2022-12-14T05:02:12.106Z,0.18
2022-12-14T05:03:51.943Z,0.18
2022-12-14T05:05:31.656Z,0.18
2022-12-14T05:07:11.392Z,0.17
2022-12-14T05:08:51.291Z,0.19
2022-12-14T05:10:30.921Z,0.15
2022-12-14T05:12:10.686Z,0.18
2022-12-14T05:13:50.448Z,0.16
2022-12-14T05:15:30.215Z,0.16
2022-12-14T05:17:09.987Z,0.18
2022-12-14T05:18:49.779Z,0.16
2022-12-14T05:20:29.499Z,0.18
2022-12-14T05:22:09.258Z,0.18
2022-12-14T05:23:49.025Z,0.18
2022-12-14T05:25:28.897Z,0.18
2022-12-14T05:27:08.683Z,0.18
2022-12-14T05:28:48.316Z,0.18
2022-12-14T05:30:28.074Z,0.17
2022-12-14T05:32:07.851Z,0.18
2022-12-14T05:33:47.624Z,0.19
2022-12-14T05:35:27.508Z,0.17
2022-12-14T05:37:07.131Z,0.18
2022-12-14T05:38:46.911Z,0.19
2022-12-14T05:40:26.665Z,0.19
2022-12-14T05:42:06.439Z,0.19
2022-12-14T05:43:46.224Z,0.19
2022-12-14T05:45:25.958Z,0.19
2022-12-14T05:47:05.742Z,0.18
2022-12-14T05:48:45.512Z,0.2
2022-12-14T05:50:25.254Z,0.18
2022-12-14T05:52:05.071Z,0.2
2022-12-14T05:53:44.787Z,0.22
2022-12-14T05:55:24.623Z,0.23
2022-12-14T05:57:04.390Z,0.23
2022-12-14T05:58:44.075Z,0.26
2022-12-14T06:00:23.850Z,0.27
2022-12-14T06:02:03.592Z,0.32
2022-12-14T06:03:43.376Z,0.33
2022-12-14T06:05:23.187Z,0.39
2022-12-14T06:07:02.893Z,0.41
2022-12-14T06:08:42.670Z,0.49
2022-12-14T06:10:22.496Z,0.54
2022-12-14T06:12:02.228Z,0.62
2022-12-14T06:13:41.961Z,0.74
2022-12-14T06:15:21.754Z,0.88
2022-12-14T06:17:01.484Z,1.04
2022-12-14T06:18:41.248Z,1.26
2022-12-14T06:20:21.084Z,1.52
2022-12-14T06:22:00.779Z,1.88
2022-12-14T06:23:40.592Z,2.36
2022-12-14T06:25:20.305Z,2.98
2022-12-14T06:27:00.124Z,3.77
2022-12-14T06:28:39.823Z,4.75
2022-12-14T06:30:19.603Z,5.98
2022-12-14T06:31:59.359Z,7.48
2022-12-14T06:33:39.113Z,9.26
2022-12-14T06:35:18.914Z,11.35
2022-12-14T06:36:58.626Z,11.98
2022-12-14T06:38:38.554Z,12.01
2022-12-14T06:40:18.156Z,12.03
2022-12-14T06:41:57.994Z,12.05
2022-12-14T06:43:37.791Z,12.05
2022-12-14T06:45:17.527Z,12.05
2022-12-14T06:46:57.225Z,12.06
2022-12-14T06:48:37.001Z,12.08
2022-12-14T06:50:16.749Z,12.1
2022-12-14T06:51:56.500Z,12.11
2022-12-14T06:53:36.334Z,12.11
2022-12-14T06:55:16.030Z,12.09
2022-12-14T06:56:55.804Z,12.11
2022-12-14T06:58:35.558Z,12.12
2022-12-14T07:00:15.382Z,12.14
2022-12-14T07:01:55.098Z,12.12
2022-12-14T07:03:34.851Z,12.12
2022-12-14T07:05:14.619Z,12.13
2022-12-14T07:06:54.429Z,12.15
2022-12-14T07:08:34.143Z,12.14
2022-12-14T07:10:13.914Z,12.17
2022-12-14T07:11:53.834Z,12.17
2022-12-14T07:13:33.563Z,12.18
2022-12-14T07:15:13.232Z,12.19
2022-12-14T07:16:52.959Z,12.18
2022-12-14T07:18:32.765Z,12.19
2022-12-14T07:20:12.510Z,12.21
2022-12-14T07:21:52.394Z,12.23
2022-12-14T07:23:32.064Z,12.22
2022-12-14T07:25:11.807Z,12.25
2022-12-14T07:26:51.567Z,12.27
2022-12-14T07:28:31.304Z,12.32
2022-12-14T07:30:11.136Z,12.55
2022-12-14T07:31:50.885Z,19.67
2022-12-14T07:33:30.604Z,16.24
2022-12-14T07:35:10.380Z,14.61
2022-12-14T07:36:50.136Z,23.16
2022-12-14T07:38:29.903Z,14.67
2022-12-14T07:40:09.673Z,13.48
2022-12-14T07:41:49.425Z,13.44
2022-12-14T07:43:29.216Z,13.49
2022-12-14T07:45:08.948Z,13.5
2022-12-14T07:46:48.769Z,13.45
2022-12-14T07:48:28.499Z,13.47
2022-12-14T07:50:08.360Z,13.53
2022-12-14T07:51:48.018Z,13.55
2022-12-14T07:53:27.774Z,13.6
2022-12-14T07:55:07.609Z,13.64
2022-12-14T07:56:47.400Z,13.63
2022-12-14T07:58:27.072Z,13.61
2022-12-14T08:00:06.839Z,13.67
2022-12-14T08:01:46.656Z,13.69
2022-12-14T08:03:26.369Z,13.72
2022-12-14T08:05:06.179Z,13.72
2022-12-14T08:06:45.884Z,13.78
2022-12-14T08:08:25.638Z,13.79
2022-12-14T08:10:05.517Z,13.81
2022-12-14T08:11:45.174Z,13.8
2022-12-14T08:13:24.969Z,13.85
2022-12-14T08:15:04.707Z,13.92
2022-12-14T08:16:44.462Z,13.91
2022-12-14T08:18:24.236Z,13.93
2022-12-14T08:20:04.013Z,13.89
2022-12-14T08:21:43.851Z,13.99
2022-12-14T08:23:23.517Z,14.07
2022-12-14T08:25:03.351Z,14
2022-12-14T08:26:43.170Z,14.01
2022-12-14T08:28:22.829Z,14.04
2022-12-14T08:30:02.651Z,13.98
2022-12-14T08:31:42.331Z,14.19
2022-12-14T08:33:22.214Z,14.26
2022-12-14T08:35:01.900Z,14.23
2022-12-14T08:36:41.676Z,14.26
2022-12-14T08:38:21.381Z,28.07
2022-12-14T08:40:01.193Z,14.4
2022-12-14T08:41:40.962Z,14.41
2022-12-14T08:43:20.811Z,14.39
2022-12-14T08:45:00.460Z,14.4
2022-12-14T08:46:40.259Z,14.47
2022-12-14T08:48:20.026Z,14.52
2022-12-14T08:49:59.748Z,14.55
2022-12-14T08:51:39.522Z,14.56
2022-12-14T08:53:19.419Z,14.58
2022-12-14T08:54:59.140Z,14.58
2022-12-14T08:56:38.903Z,14.63
2022-12-14T08:58:18.594Z,14.65
2022-12-14T08:59:58.366Z,14.62
2022-12-14T09:01:38.229Z,14.62
2022-12-14T09:04:57.755Z,14.67
2022-12-14T09:06:37.471Z,14.6
2022-12-14T09:08:17.217Z,14.54
2022-12-14T09:09:57.003Z,14.52
2022-12-14T09:11:36.895Z,14.54
2022-12-14T09:13:16.497Z,14.51
2022-12-14T09:14:56.246Z,14.65
2022-12-14T09:16:36.059Z,14.5
2022-12-14T09:18:15.792Z,14.49
2022-12-14T09:19:55.541Z,14.35
2022-12-14T09:21:35.305Z,14.49
2022-12-14T09:23:15.101Z,14.49
2022-12-14T09:24:54.856Z,14.6
2022-12-14T09:26:34.616Z,14.58
2022-12-14T09:28:14.456Z,14.65
2022-12-14T09:29:54.133Z,14.48
2022-12-14T09:31:33.964Z,14.35
2022-12-14T09:33:13.662Z,14.31
2022-12-14T09:34:53.506Z,14.43
2022-12-14T09:36:33.330Z,14.45
2022-12-14T09:38:12.957Z,47.91
2022-12-14T09:39:52.896Z,14.75
2022-12-14T09:41:32.658Z,14.63
2022-12-14T09:43:12.370Z,14.62
2022-12-14T09:44:52.056Z,14.73
2022-12-14T09:46:31.798Z,14.86
2022-12-14T09:48:11.560Z,14.81
2022-12-14T09:49:51.370Z,14.7
2022-12-14T09:51:31.104Z,14.57
2022-12-14T09:53:10.855Z,14.54
2022-12-14T09:54:50.621Z,14.59
2022-12-14T09:56:30.403Z,14.51
2022-12-14T09:58:10.218Z,14.46
2022-12-14T09:59:49.910Z,14.42
2022-12-14T10:01:29.679Z,14.45
2022-12-14T10:03:09.470Z,14.48
2022-12-14T10:04:49.223Z,14.51
2022-12-14T10:06:28.985Z,14.53
2022-12-14T10:08:08.755Z,14.56
2022-12-14T10:09:48.543Z,14.56
2022-12-14T10:11:28.279Z,14.62
2022-12-14T10:13:08.056Z,14.67
2022-12-14T10:14:47.813Z,14.58
2022-12-14T10:16:27.584Z,14.56
2022-12-14T10:18:07.346Z,14.64
2022-12-14T10:19:47.165Z,14.58
2022-12-14T10:21:26.877Z,14.61
2022-12-14T10:23:06.663Z,14.61
2022-12-14T10:24:46.413Z,14.63
2022-12-14T10:26:26.178Z,14.63
2022-12-14T10:28:05.938Z,14.65
2022-12-14T10:29:45.742Z,14.67
2022-12-14T10:31:25.500Z,14.68
2022-12-14T10:33:05.250Z,14.66
2022-12-14T10:34:45.033Z,14.66
2022-12-14T10:36:24.793Z,14.7
2022-12-14T10:38:04.552Z,14.66
2022-12-14T10:39:44.346Z,16.44
2022-12-14T10:41:24.079Z,14.68
2022-12-14T10:43:03.910Z,14.67
2022-12-14T10:44:43.675Z,14.7
2022-12-14T10:46:23.380Z,14.69
2022-12-14T10:48:03.178Z,14.76
2022-12-14T10:49:42.921Z,14.74
2022-12-14T10:51:22.715Z,14.66
2022-12-14T10:53:02.452Z,14.61
2022-12-14T10:54:42.290Z,14.58
2022-12-14T10:56:22.106Z,14.55
2022-12-14T10:58:01.766Z,14.61
2022-12-14T10:59:41.597Z,14.66
2022-12-14T11:01:21.279Z,14.61
2022-12-14T11:03:01.067Z,14.64
2022-12-14T11:04:40.816Z,14.67
2022-12-14T11:06:20.578Z,14.62
2022-12-14T11:08:00.404Z,14.54
2022-12-14T11:09:40.112Z,14.48
2022-12-14T11:11:20.085Z,14.5
2022-12-14T11:12:59.662Z,14.57
2022-12-14T11:14:39.443Z,14.59
2022-12-14T11:16:19.242Z,14.62
2022-12-14T11:17:58.958Z,14.58
2022-12-14T11:19:38.717Z,14.69
2022-12-14T11:21:18.476Z,14.72
2022-12-14T11:22:58.335Z,14.68
2022-12-14T11:24:38.021Z,14.66
2022-12-14T11:26:17.934Z,14.76
2022-12-14T11:27:57.555Z,14.88
2022-12-14T11:29:37.310Z,14.97
2022-12-14T11:31:17.086Z,14.76
2022-12-14T11:32:56.863Z,14.73
2022-12-14T11:34:36.611Z,14.9
2022-12-14T11:36:16.393Z,15.06
2022-12-14T11:37:56.159Z,15.16
2022-12-14T11:39:35.906Z,46.14
2022-12-14T11:41:15.682Z,45.17
2022-12-14T11:42:55.471Z,44.28
2022-12-14T11:44:35.278Z,21.81
2022-12-14T11:46:14.970Z,14.87
2022-12-14T11:47:54.744Z,40.74
2022-12-14T11:49:34.549Z,39.75
2022-12-14T11:51:14.301Z,38.43
2022-12-14T11:52:54.163Z,39.49
2022-12-14T11:54:33.830Z,39.41
2022-12-14T11:56:13.647Z,39.95
2022-12-14T11:57:53.352Z,39.38
2022-12-14T11:59:33.120Z,38.95
2022-12-14T12:01:12.894Z,39.36
2022-12-14T12:02:52.633Z,39.5
2022-12-14T12:04:32.418Z,31.97
2022-12-14T12:06:12.249Z,14.71
2022-12-14T12:07:51.940Z,14.69
2022-12-14T12:09:31.729Z,14.7
2022-12-14T12:11:11.466Z,14.79
2022-12-14T12:12:51.252Z,14.79
2022-12-14T12:14:31.231Z,14.84
2022-12-14T12:16:10.908Z,14.8
2022-12-14T12:17:50.564Z,14.75
2022-12-14T12:19:30.320Z,14.81
2022-12-14T12:21:10.083Z,14.68
2022-12-14T12:22:49.851Z,14.64
2022-12-14T12:24:29.603Z,14.63
2022-12-14T12:26:09.357Z,14.64
2022-12-14T12:27:49.132Z,14.66
2022-12-14T12:29:28.943Z,14.66
2022-12-14T12:31:08.690Z,14.64
2022-12-14T12:32:48.456Z,14.62
2022-12-14T12:34:28.241Z,14.66
2022-12-14T12:36:08.018Z,14.68
2022-12-14T12:37:47.732Z,14.63
2022-12-14T12:39:27.515Z,14.73
2022-12-14T12:41:07.259Z,14.61
2022-12-14T12:42:47.042Z,14.7
2022-12-14T12:44:26.795Z,14.55
2022-12-14T12:46:06.581Z,14.48
2022-12-14T12:47:46.369Z,35.36
2022-12-14T12:49:26.093Z,14.33
2022-12-14T12:51:05.852Z,14.3
2022-12-14T12:52:45.616Z,14.24
2022-12-14T12:54:25.407Z,14.23
2022-12-14T12:56:05.164Z,14.21
2022-12-14T12:57:44.935Z,14.18
2022-12-14T12:59:24.721Z,14.16
2022-12-14T13:01:04.442Z,14.16
2022-12-14T13:02:44.201Z,14.17
2022-12-14T13:04:23.956Z,14.13
2022-12-14T13:06:03.731Z,14.14
2022-12-14T13:07:43.488Z,14.14
2022-12-14T13:11:03.015Z,14.1
2022-12-14T13:12:42.782Z,14.08
2022-12-14T13:14:22.574Z,14.09
2022-12-14T13:16:02.314Z,14.05
2022-12-14T13:17:42.086Z,14.06
2022-12-14T13:19:21.894Z,14.06
2022-12-14T13:21:01.599Z,14.06
2022-12-14T13:22:41.460Z,14.04
2022-12-14T13:24:21.135Z,14.08
2022-12-14T13:26:00.893Z,14.08
2022-12-14T13:27:40.670Z,14.05
2022-12-14T13:29:20.426Z,14.06
2022-12-14T13:31:00.273Z,14.03
2022-12-14T13:32:39.943Z,14.03
2022-12-14T13:34:19.711Z,14.04
2022-12-14T13:35:59.487Z,14.05
2022-12-14T13:37:39.303Z,14.03
2022-12-14T13:39:19.072Z,14.02
2022-12-14T13:40:58.785Z,14.02
2022-12-14T13:42:38.529Z,14.01
2022-12-14T13:44:18.295Z,14.02
2022-12-14T13:45:58.068Z,13.99
2022-12-14T13:47:37.824Z,13.98
2022-12-14T13:49:17.603Z,14.99
2022-12-14T13:50:57.356Z,14.01
2022-12-14T13:52:37.119Z,13.97
2022-12-14T13:54:16.886Z,13.98
2022-12-14T13:55:56.655Z,13.97
2022-12-14T13:57:36.415Z,13.95
2022-12-14T13:59:16.195Z,13.95
2022-12-14T14:00:56.005Z,13.94
2022-12-14T14:02:35.703Z,13.96
2022-12-14T14:04:15.466Z,13.93
2022-12-14T14:05:55.226Z,13.97
2022-12-14T14:07:35.011Z,13.93
2022-12-14T14:09:14.763Z,13.93
2022-12-14T14:10:54.525Z,13.92
2022-12-14T14:12:34.300Z,13.91
2022-12-14T14:14:14.058Z,13.9
2022-12-14T14:15:53.816Z,13.89
2022-12-14T14:17:33.570Z,13.88
2022-12-14T14:19:13.367Z,13.86
2022-12-14T14:20:53.116Z,16.62
2022-12-14T14:22:32.904Z,17.04
2022-12-14T14:24:12.638Z,15.24
2022-12-14T14:25:52.458Z,23.26
2022-12-14T14:29:11.977Z,12.74
2022-12-14T14:30:51.683Z,21.26
2022-12-14T14:32:31.448Z,20.87
2022-12-14T14:34:11.218Z,18.89
2022-12-14T14:35:50.987Z,17.1
2022-12-14T14:37:30.759Z,33.22
2022-12-14T14:39:10.687Z,12.79
2022-12-14T14:40:50.262Z,12.77
2022-12-14T14:42:30.022Z,12.73
2022-12-14T14:44:09.802Z,12.73
2022-12-14T14:45:49.566Z,12.72
2022-12-14T14:47:29.327Z,12.7
2022-12-14T14:49:09.142Z,12.69
2022-12-14T14:50:48.855Z,12.69
2022-12-14T14:52:28.619Z,12.67
2022-12-14T14:54:08.366Z,12.69
2022-12-14T14:55:48.144Z,12.66
2022-12-14T14:57:27.915Z,12.65
2022-12-14T14:59:07.684Z,12.63
2022-12-14T15:00:47.427Z,12.63
2022-12-14T15:02:27.197Z,12.63
2022-12-14T15:04:06.955Z,12.62
2022-12-14T15:05:46.725Z,12.63
2022-12-14T15:07:26.495Z,12.62
2022-12-14T15:09:06.278Z,12.59
2022-12-14T15:10:46.022Z,12.58
2022-12-14T15:12:25.785Z,12.56
2022-12-14T15:14:05.547Z,12.56
2022-12-14T15:15:45.304Z,12.56
2022-12-14T15:19:04.852Z,12.53
2022-12-14T15:20:44.604Z,12.51
2022-12-14T15:22:24.358Z,12.49
2022-12-14T15:24:04.148Z,12.43
2022-12-14T15:25:43.894Z,11.03
2022-12-14T15:27:23.650Z,8.97
2022-12-14T15:29:03.468Z,7.22
2022-12-14T15:30:43.176Z,5.81
2022-12-14T15:32:22.945Z,4.69
2022-12-14T15:34:02.712Z,3.75
2022-12-14T15:37:22.240Z,2.47
2022-12-14T15:39:02.054Z,1.99
2022-12-14T15:40:41.768Z,1.61
2022-12-14T15:42:21.589Z,1.35
2022-12-14T15:44:01.409Z,1.1
2022-12-14T15:45:41.049Z,0.9
2022-12-14T15:47:20.810Z,0.74
2022-12-14T15:49:00.590Z,0.63
2022-12-14T15:50:40.348Z,0.54
2022-12-14T15:52:20.102Z,0.43
2022-12-14T15:53:59.957Z,0.37
2022-12-14T15:55:39.643Z,0.33
2022-12-14T15:57:19.395Z,0.27
2022-12-14T15:58:59.160Z,0.25
2022-12-14T16:00:38.929Z,0.19
2022-12-14T16:02:18.680Z,0.19
2022-12-14T16:03:58.625Z,0.15
2022-12-14T16:05:38.372Z,0.12
2022-12-14T16:07:18.131Z,0.13
2022-12-14T16:08:57.774Z,0.12
2022-12-14T16:10:37.509Z,0.12
2022-12-14T16:12:17.284Z,0.09
2022-12-14T16:13:57.036Z,0.09
2022-12-14T16:15:36.808Z,0.1
2022-12-14T16:17:16.668Z,0.07
2022-12-14T16:18:56.377Z,0.09
2022-12-14T16:20:36.255Z,0.07
2022-12-14T16:22:15.905Z,0.06
2022-12-14T16:23:55.631Z,0.06
2022-12-14T16:25:35.413Z,0.07
2022-12-14T16:27:15.151Z,0.08
2022-12-14T16:28:54.959Z,0.08
2022-12-14T16:30:34.870Z,0.08
2022-12-14T16:32:14.507Z,0.08
2022-12-14T16:33:54.187Z,0.07
2022-12-14T16:35:33.988Z,0.07
2022-12-14T16:37:13.736Z,0.07
2022-12-14T16:38:53.501Z,0.06
2022-12-14T16:40:33.283Z,0.07
2022-12-14T16:42:13.018Z,0.07
2022-12-14T16:43:52.796Z,0.07
2022-12-14T16:45:32.557Z,0.06
2022-12-14T16:47:12.327Z,0.07
2022-12-14T16:48:52.213Z,0.07
2022-12-14T16:50:31.844Z,0.05
2022-12-14T16:52:11.600Z,0.04
2022-12-14T16:53:51.365Z,0.07
2022-12-14T16:55:31.138Z,0.06
2022-12-14T16:57:10.894Z,0.08
2022-12-14T16:58:50.673Z,0.05
2022-12-14T17:00:30.421Z,0.06
2022-12-14T17:02:10.195Z,0.05
2022-12-14T17:03:49.978Z,0.05
2022-12-14T17:05:29.706Z,0.05
2022-12-14T17:07:09.481Z,0.05
2022-12-14T17:08:49.241Z,0.04
2022-12-14T17:10:29.023Z,0.06
2022-12-14T17:12:08.779Z,0.07
2022-12-14T17:13:49.199Z,0.06
2022-12-14T17:15:28.300Z,0.05
2022-12-14T17:18:47.836Z,0.07
2022-12-14T17:20:27.597Z,0.07
2022-12-14T17:22:07.363Z,0.07
2022-12-14T17:25:26.893Z,0.05
2022-12-14T17:27:06.745Z,0.06
2022-12-14T17:28:46.533Z,0.07
2022-12-14T17:30:26.231Z,0.07
2022-12-14T17:32:05.941Z,0.05
2022-12-14T17:33:45.699Z,0.06
2022-12-14T17:35:25.482Z,0.06
2022-12-14T17:37:05.228Z,0.05
2022-12-14T17:38:44.990Z,0.04
2022-12-14T17:40:24.763Z,0.06
2022-12-14T17:42:04.561Z,0.06
2022-12-14T17:43:44.275Z,0.07
2022-12-14T17:45:24.188Z,0.04
2022-12-14T17:47:03.812Z,0.06
2022-12-14T17:48:43.578Z,0.05
2022-12-14T17:50:23.343Z,0.06
2022-12-14T17:52:03.097Z,0.05
2022-12-14T17:53:42.885Z,0.04
2022-12-14T17:55:22.628Z,0.07
2022-12-14T17:57:02.403Z,0.07
2022-12-14T17:58:42.158Z,0.05
2022-12-14T18:00:21.927Z,0.05
2022-12-14T18:02:01.692Z,0.04
2022-12-14T18:03:41.472Z,0.04
2022-12-14T18:05:21.219Z,0.04
2022-12-14T18:07:00.972Z,0.05
2022-12-14T18:08:40.739Z,0.05
2022-12-14T18:10:20.502Z,0.05
2022-12-14T18:12:00.297Z,0.05
2022-12-14T18:13:40.019Z,0.03
2022-12-14T18:15:19.889Z,0.05
2022-12-14T18:16:59.727Z,0.05
2022-12-14T18:18:39.500Z,0.03
2022-12-14T18:20:19.247Z,0.04
2022-12-14T18:21:58.995Z,0.03
2022-12-14T18:23:38.847Z,0.05
2022-12-14T18:25:18.569Z,0.06
2022-12-14T18:26:58.326Z,0.05
2022-12-14T18:28:38.074Z,0.06
2022-12-14T18:30:17.812Z,0.03
2022-12-14T18:31:57.454Z,0.03
2022-12-14T18:33:37.204Z,0.03
2022-12-14T18:35:17.170Z,0.04
2022-12-14T18:36:56.781Z,0.05
2022-12-14T18:38:36.564Z,0.05
2022-12-14T18:40:16.260Z,0.05
2022-12-14T18:41:56.068Z,0.03
2022-12-14T18:43:35.782Z,0.03
2022-12-14T18:45:15.642Z,0.05
2022-12-14T18:46:55.306Z,0.05
2022-12-14T18:48:35.079Z,0.04
2022-12-14T18:50:14.836Z,0.05
2022-12-14T18:51:54.609Z,0.05
2022-12-14T18:53:34.395Z,0.03
2022-12-14T18:55:14.131Z,0.04
2022-12-14T18:56:53.911Z,0.05
2022-12-14T18:58:33.738Z,0.03
2022-12-14T19:00:13.423Z,0.05
2022-12-14T19:01:53.254Z,0.04
2022-12-14T19:03:33.055Z,0.05
2022-12-14T19:05:12.702Z,0.05
2022-12-14T19:06:52.485Z,0.05
2022-12-14T19:08:32.247Z,0.08
2022-12-14T19:10:11.996Z,0.05
2022-12-14T19:11:51.823Z,0.03
2022-12-14T19:13:31.574Z,0.05
2022-12-14T19:15:11.292Z,0.04
2022-12-14T19:16:51.053Z,0.05
2022-12-14T19:18:30.817Z,0.06
2022-12-14T19:20:10.610Z,0.05
2022-12-14T19:21:50.385Z,0.03
2022-12-14T19:23:30.322Z,0.05
2022-12-14T19:25:09.937Z,0.05
2022-12-14T19:26:49.648Z,0.03
2022-12-14T19:28:29.398Z,0.05
2022-12-14T19:30:09.217Z,0.04
2022-12-14T19:31:48.931Z,0.04
2022-12-14T19:33:28.830Z,0.06
2022-12-14T19:35:08.448Z,0.05
2022-12-14T19:36:48.226Z,0.06
2022-12-14T19:38:27.992Z,0.04
2022-12-14T19:40:07.765Z,0.03
2022-12-14T19:41:47.593Z,0.03
2022-12-14T19:43:27.441Z,0.05
2022-12-14T19:45:07.082Z,0.04
2022-12-14T19:46:46.808Z,0.05
2022-12-14T19:48:26.566Z,0.05
2022-12-14T19:50:06.333Z,0.03
2022-12-14T19:51:46.103Z,0.06
2022-12-14T19:53:26.044Z,0.05
2022-12-14T19:55:05.631Z,0.05
2022-12-14T19:56:45.397Z,0.03
2022-12-14T19:58:25.140Z,0.04
2022-12-14T20:00:04.921Z,0.03
2022-12-14T20:01:44.679Z,0.04
2022-12-14T20:03:24.441Z,0.05
2022-12-14T20:05:04.226Z,0.05
2022-12-14T20:06:44.109Z,0.05
2022-12-14T20:08:23.734Z,0.03
2022-12-14T20:10:03.590Z,0.05
2022-12-14T20:11:43.261Z,0.05
2022-12-14T20:13:23.184Z,0.05
2022-12-14T20:15:02.805Z,0.05
2022-12-14T20:16:42.616Z,0.06
2022-12-14T20:18:22.319Z,0.05
2022-12-14T20:20:02.102Z,0.03
2022-12-14T20:21:41.849Z,0.06
2022-12-14T20:23:21.765Z,0.05
2022-12-14T20:25:01.417Z,0.04
2022-12-14T20:26:41.142Z,0.05
2022-12-14T20:28:20.947Z,0.05
2022-12-14T20:30:00.675Z,0.04
2022-12-14T20:31:40.489Z,0.05
2022-12-14T20:33:20.341Z,0.04
2022-12-14T20:34:59.957Z,0.05
2022-12-14T20:36:39.739Z,0.07
2022-12-14T20:38:19.483Z,0.03
2022-12-14T20:39:59.277Z,0.03
2022-12-14T20:41:39.013Z,0.04
2022-12-14T20:43:18.845Z,0.05
2022-12-14T20:44:58.609Z,0.03
2022-12-14T20:46:38.363Z,0.03
2022-12-14T20:48:18.106Z,0.04
2022-12-14T20:49:57.832Z,0.04
2022-12-14T20:51:37.670Z,0.03
2022-12-14T20:53:17.483Z,0.03
2022-12-14T20:54:57.193Z,0.04
2022-12-14T20:56:36.891Z,0.06
2022-12-14T20:58:16.643Z,0.02
2022-12-14T20:59:56.408Z,0.04
2022-12-14T21:01:36.184Z,0.03
2022-12-14T21:03:15.995Z,0.04
2022-12-14T21:04:55.769Z,0.04
2022-12-14T21:06:35.493Z,0.05
2022-12-14T21:08:15.309Z,0.05
2022-12-14T21:09:54.991Z,0.04
2022-12-14T21:11:34.751Z,0.04
2022-12-14T21:13:14.548Z,0.02
2022-12-14T21:14:54.303Z,0.04
2022-12-14T21:16:34.051Z,0.04
2022-12-14T21:18:13.807Z,0.02
2022-12-14T21:19:53.572Z,0.03
2022-12-14T21:21:33.338Z,0.02
2022-12-14T21:23:13.117Z,0.05
2022-12-14T21:24:52.927Z,0.04
2022-12-14T21:26:32.635Z,0.03
2022-12-14T21:28:12.523Z,0.03
2022-12-14T21:29:52.176Z,0.04
2022-12-14T21:31:31.911Z,0.03
2022-12-14T21:33:11.697Z,0.04
2022-12-14T21:34:51.497Z,0.04
2022-12-14T21:36:31.216Z,0.03
2022-12-14T21:38:11.051Z,0.03
2022-12-14T21:39:50.775Z,0.03
2022-12-14T21:41:30.501Z,0.04
2022-12-14T21:43:10.281Z,0.03
2022-12-14T21:44:50.037Z,0.03
2022-12-14T21:46:29.821Z,0.03
2022-12-14T21:48:09.555Z,0.03
2022-12-14T21:49:49.337Z,0.02
2022-12-14T21:51:29.097Z,0.02
2022-12-14T21:53:08.866Z,0.03
2022-12-14T21:54:48.626Z,0.04
2022-12-14T21:56:28.456Z,0.05
2022-12-14T21:58:08.151Z,0.05
2022-12-14T21:59:47.955Z,0.04
2022-12-14T22:01:27.671Z,0.02
2022-12-14T22:03:07.440Z,0.04
2022-12-14T22:04:47.207Z,0.05